sensor_id;sensor_type;location;lat;lon;timestamp;pressure;altitude;pressure_sealevel;temperature;humidity
2188;BME280;1100;52.014;8.540;2023-05-23T00:01:23;100059.22;;;12.73;81.38
2188;BME280;1100;52.014;8.540;2023-05-23T00:03:49;100058.56;;;12.69;81.23
2188;BME280;1100;52.014;8.540;2023-05-23T00:06:18;100059.59;;;12.62;81.07
2188;BME280;1100;52.014;8.540;2023-05-23T00:08:45;100059.72;;;12.58;81.11
2188;BME280;1100;52.014;8.540;2023-05-23T00:11:10;100063.44;;;12.55;81.14
2188;BME280;1100;52.014;8.540;2023-05-23T00:13:37;100063.69;;;12.48;80.94
2188;BME280;1100;52.014;8.540;2023-05-23T00:16:04;100054.69;;;12.44;81.15
2188;BME280;1100;52.014;8.540;2023-05-23T00:18:34;100061.81;;;12.45;81.30
2188;BME280;1100;52.014;8.540;2023-05-23T00:20:59;100059.03;;;12.45;81.32
2188;BME280;1100;52.014;8.540;2023-05-23T00:23:26;100060.25;;;12.44;81.34
2188;BME280;1100;52.014;8.540;2023-05-23T00:25:54;100065.38;;;12.45;81.41
2188;BME280;1100;52.014;8.540;2023-05-23T00:28:20;100058.22;;;12.44;81.23
2188;BME280;1100;52.014;8.540;2023-05-23T00:30:46;100052.03;;;12.40;81.08
2188;BME280;1100;52.014;8.540;2023-05-23T00:33:13;100061.28;;;12.37;81.19
2188;BME280;1100;52.014;8.540;2023-05-23T00:35:40;100058.16;;;12.35;81.21
2188;BME280;1100;52.014;8.540;2023-05-23T00:38:05;100059.28;;;12.38;81.40
2188;BME280;1100;52.014;8.540;2023-05-23T00:40:32;100063.16;;;12.40;81.30
2188;BME280;1100;52.014;8.540;2023-05-23T00:42:58;100061.63;;;12.39;81.25
2188;BME280;1100;52.014;8.540;2023-05-23T00:45:24;100057.25;;;12.38;81.30
2188;BME280;1100;52.014;8.540;2023-05-23T00:47:49;100065.38;;;12.45;81.41
2188;BME280;1100;52.014;8.540;2023-05-23T00:50:15;100056.88;;;12.49;81.42
2188;BME280;1100;52.014;8.540;2023-05-23T00:52:42;100066.22;;;12.55;81.57
2188;BME280;1100;52.014;8.540;2023-05-23T00:55:08;100065.31;;;12.58;81.74
2188;BME280;1100;52.014;8.540;2023-05-23T00:57:35;100066.72;;;12.63;81.76
2188;BME280;1100;52.014;8.540;2023-05-23T01:00:07;100060.69;;;12.65;81.73
2188;BME280;1100;52.014;8.540;2023-05-23T01:02:36;100065.38;;;12.68;81.76
2188;BME280;1100;52.014;8.540;2023-05-23T01:05:05;100073.63;;;12.71;81.72
2188;BME280;1100;52.014;8.540;2023-05-23T01:07:31;100071.16;;;12.74;81.74
2188;BME280;1100;52.014;8.540;2023-05-23T01:09:56;100065.44;;;12.77;81.82
2188;BME280;1100;52.014;8.540;2023-05-23T01:15:10;100071.66;;;12.81;81.83
2188;BME280;1100;52.014;8.540;2023-05-23T01:20:31;100071.22;;;12.83;82.09
2188;BME280;1100;52.014;8.540;2023-05-23T01:23:12;100073.22;;;12.82;82.05
2188;BME280;1100;52.014;8.540;2023-05-23T01:28:28;100071.50;;;12.85;82.03
2188;BME280;1100;52.014;8.540;2023-05-23T01:30:57;100081.75;;;12.88;82.10
2188;BME280;1100;52.014;8.540;2023-05-23T01:33:24;100070.31;;;12.86;82.13
2188;BME280;1100;52.014;8.540;2023-05-23T01:35:49;100074.19;;;12.89;82.67
2188;BME280;1100;52.014;8.540;2023-05-23T01:38:15;100072.31;;;12.86;82.45
2188;BME280;1100;52.014;8.540;2023-05-23T01:40:40;100073.84;;;12.87;82.66
2188;BME280;1100;52.014;8.540;2023-05-23T01:43:06;100061.94;;;12.86;82.96
2188;BME280;1100;52.014;8.540;2023-05-23T01:45:32;100074.31;;;12.85;83.03
2188;BME280;1100;52.014;8.540;2023-05-23T01:47:58;100078.34;;;12.84;83.05
2188;BME280;1100;52.014;8.540;2023-05-23T01:50:23;100084.38;;;12.82;83.10
2188;BME280;1100;52.014;8.540;2023-05-23T01:52:50;100085.28;;;12.79;83.06
2188;BME280;1100;52.014;8.540;2023-05-23T01:55:18;100082.03;;;12.81;83.27
2188;BME280;1100;52.014;8.540;2023-05-23T01:57:48;100086.81;;;12.80;83.49
2188;BME280;1100;52.014;8.540;2023-05-23T02:00:14;100090.06;;;12.79;83.54
2188;BME280;1100;52.014;8.540;2023-05-23T02:02:40;100081.84;;;12.75;84.09
2188;BME280;1100;52.014;8.540;2023-05-23T02:05:06;100089.25;;;12.69;84.83
2188;BME280;1100;52.014;8.540;2023-05-23T02:07:31;100104.34;;;12.58;84.74
2188;BME280;1100;52.014;8.540;2023-05-23T02:09:57;100103.19;;;12.46;84.71
2188;BME280;1100;52.014;8.540;2023-05-23T02:12:22;100106.53;;;12.41;85.25
2188;BME280;1100;52.014;8.540;2023-05-23T02:14:48;100110.03;;;12.32;85.00
2188;BME280;1100;52.014;8.540;2023-05-23T02:17:14;100111.38;;;12.28;85.10
2188;BME280;1100;52.014;8.540;2023-05-23T02:19:41;100121.09;;;12.23;84.81
2188;BME280;1100;52.014;8.540;2023-05-23T02:22:06;100111.63;;;12.20;84.86
2188;BME280;1100;52.014;8.540;2023-05-23T02:24:31;100107.28;;;12.19;84.53
2188;BME280;1100;52.014;8.540;2023-05-23T02:26:56;100115.31;;;12.17;84.44
2188;BME280;1100;52.014;8.540;2023-05-23T02:29:22;100111.41;;;12.15;84.33
2188;BME280;1100;52.014;8.540;2023-05-23T02:31:47;100112.31;;;12.12;84.54
2188;BME280;1100;52.014;8.540;2023-05-23T02:34:12;100113.63;;;12.07;84.33
2188;BME280;1100;52.014;8.540;2023-05-23T02:36:38;100115.31;;;12.04;84.23
2188;BME280;1100;52.014;8.540;2023-05-23T02:39:04;100117.31;;;12.04;84.28
2188;BME280;1100;52.014;8.540;2023-05-23T02:41:30;100120.53;;;12.02;84.18
2188;BME280;1100;52.014;8.540;2023-05-23T02:43:55;100122.56;;;12.02;84.38
2188;BME280;1100;52.014;8.540;2023-05-23T02:46:21;100116.66;;;12.00;84.32
2188;BME280;1100;52.014;8.540;2023-05-23T02:48:46;100123.13;;;11.96;84.39
2188;BME280;1100;52.014;8.540;2023-05-23T02:51:12;100128.69;;;11.96;84.36
2188;BME280;1100;52.014;8.540;2023-05-23T02:53:38;100121.56;;;11.95;84.68
2188;BME280;1100;52.014;8.540;2023-05-23T02:56:03;100121.56;;;11.95;84.64
2188;BME280;1100;52.014;8.540;2023-05-23T02:58:28;100124.34;;;11.95;84.49
2188;BME280;1100;52.014;8.540;2023-05-23T03:00:54;100125.13;;;11.96;84.55
2188;BME280;1100;52.014;8.540;2023-05-23T03:03:19;100119.91;;;11.98;84.64
2188;BME280;1100;52.014;8.540;2023-05-23T03:05:45;100121.91;;;11.98;84.40
2188;BME280;1100;52.014;8.540;2023-05-23T03:08:10;100122.69;;;11.98;84.35
2188;BME280;1100;52.014;8.540;2023-05-23T03:10:36;100111.09;;;12.00;84.14
2188;BME280;1100;52.014;8.540;2023-05-23T03:13:01;100109.09;;;12.00;84.11
2188;BME280;1100;52.014;8.540;2023-05-23T03:15:26;100119.91;;;11.98;84.05
2188;BME280;1100;52.014;8.540;2023-05-23T03:17:52;100117.56;;;11.96;84.15
2188;BME280;1100;52.014;8.540;2023-05-23T03:20:17;100109.50;;;11.99;84.17
2188;BME280;1100;52.014;8.540;2023-05-23T03:22:43;100109.84;;;12.01;84.21
2188;BME280;1100;52.014;8.540;2023-05-23T03:25:09;100107.84;;;12.01;84.25
2188;BME280;1100;52.014;8.540;2023-05-23T03:27:34;100105.41;;;12.03;84.55
2188;BME280;1100;52.014;8.540;2023-05-23T03:30:00;100104.28;;;12.01;84.29
2188;BME280;1100;52.014;8.540;2023-05-23T03:32:25;100103.53;;;12.00;84.34
2188;BME280;1100;52.014;8.540;2023-05-23T03:34:51;100105.97;;;11.98;84.68
2188;BME280;1100;52.014;8.540;2023-05-23T03:37:16;100106.41;;;11.96;84.42
2188;BME280;1100;52.014;8.540;2023-05-23T03:39:41;100112.88;;;11.93;84.57
2188;BME280;1100;52.014;8.540;2023-05-23T03:42:06;100112.00;;;11.96;84.75
2188;BME280;1100;52.014;8.540;2023-05-23T03:44:32;100113.19;;;11.95;84.79
2188;BME280;1100;52.014;8.540;2023-05-23T03:46:57;100113.66;;;11.94;84.97
2188;BME280;1100;52.014;8.540;2023-05-23T03:49:22;100109.31;;;11.93;85.22
2188;BME280;1100;52.014;8.540;2023-05-23T03:51:48;100112.19;;;11.89;85.05
2188;BME280;1100;52.014;8.540;2023-05-23T03:54:13;100110.22;;;11.90;85.03
2188;BME280;1100;52.014;8.540;2023-05-23T03:56:38;100107.88;;;11.88;85.24
2188;BME280;1100;52.014;8.540;2023-05-23T03:59:04;100118.56;;;11.90;85.63
2188;BME280;1100;52.014;8.540;2023-05-23T04:01:29;100124.59;;;11.88;85.54
2188;BME280;1100;52.014;8.540;2023-05-23T04:03:54;100117.00;;;11.89;85.58
2188;BME280;1100;52.014;8.540;2023-05-23T04:06:20;100121.34;;;11.90;85.97
2188;BME280;1100;52.014;8.540;2023-05-23T04:08:46;100124.13;;;11.90;85.63
2188;BME280;1100;52.014;8.540;2023-05-23T04:11:12;100122.44;;;11.92;85.97
2188;BME280;1100;52.014;8.540;2023-05-23T04:13:38;100123.22;;;11.93;85.97
2188;BME280;1100;52.014;8.540;2023-05-23T04:16:03;100127.13;;;11.95;86.03
2188;BME280;1100;52.014;8.540;2023-05-23T04:18:30;100124.69;;;11.98;85.83
2188;BME280;1100;52.014;8.540;2023-05-23T04:20:57;100128.69;;;11.96;85.90
2188;BME280;1100;52.014;8.540;2023-05-23T04:23:22;100136.59;;;11.98;85.84
2188;BME280;1100;52.014;8.540;2023-05-23T04:25:48;100140.84;;;12.03;85.88
2188;BME280;1100;52.014;8.540;2023-05-23T04:28:13;100134.81;;;12.04;86.19
2188;BME280;1100;52.014;8.540;2023-05-23T04:30:42;100136.38;;;12.05;85.78
2188;BME280;1100;52.014;8.540;2023-05-23T04:33:07;100137.59;;;12.04;86.05
2188;BME280;1100;52.014;8.540;2023-05-23T04:35:34;100142.66;;;12.10;86.05
2188;BME280;1100;52.014;8.540;2023-05-23T04:38:02;100140.16;;;12.12;86.24
2188;BME280;1100;52.014;8.540;2023-05-23T04:40:28;100143.63;;;12.16;86.18
2188;BME280;1100;52.014;8.540;2023-05-23T04:42:53;100139.63;;;12.17;86.04
2188;BME280;1100;52.014;8.540;2023-05-23T04:45:18;100139.16;;;12.18;86.23
2188;BME280;1100;52.014;8.540;2023-05-23T04:47:47;100143.50;;;12.19;86.31
2188;BME280;1100;52.014;8.540;2023-05-23T04:50:12;100156.97;;;12.21;86.33
2188;BME280;1100;52.014;8.540;2023-05-23T04:52:40;100147.72;;;12.24;86.84
2188;BME280;1100;52.014;8.540;2023-05-23T04:55:06;100147.72;;;12.24;86.53
2188;BME280;1100;52.014;8.540;2023-05-23T04:57:33;100155.19;;;12.27;86.32
2188;BME280;1100;52.014;8.540;2023-05-23T04:59:58;100157.06;;;12.30;86.55
2188;BME280;1100;52.014;8.540;2023-05-23T05:02:26;100159.84;;;12.30;86.27
2188;BME280;1100;52.014;8.540;2023-05-23T05:04:51;100162.66;;;12.30;86.00
2188;BME280;1100;52.014;8.540;2023-05-23T05:07:17;100160.66;;;12.31;86.13
2188;BME280;1100;52.014;8.540;2023-05-23T05:09:42;100156.50;;;12.36;86.15
2188;BME280;1100;52.014;8.540;2023-05-23T05:12:07;100161.63;;;12.37;86.22
2188;BME280;1100;52.014;8.540;2023-05-23T05:14:33;100162.72;;;12.40;86.34
2188;BME280;1100;52.014;8.540;2023-05-23T05:16:58;100161.53;;;12.41;86.24
2188;BME280;1100;52.014;8.540;2023-05-23T05:19:23;100158.59;;;12.44;86.81
2188;BME280;1100;52.014;8.540;2023-05-23T05:21:49;100170.88;;;12.47;86.45
2188;BME280;1100;52.014;8.540;2023-05-23T05:24:15;100169.28;;;12.46;86.13
2188;BME280;1100;52.014;8.540;2023-05-23T05:26:41;100162.50;;;12.47;86.50
2188;BME280;1100;52.014;8.540;2023-05-23T05:29:06;100168.53;;;12.45;86.50
2188;BME280;1100;52.014;8.540;2023-05-23T05:31:31;100164.97;;;12.45;86.41
2188;BME280;1100;52.014;8.540;2023-05-23T05:33:57;100159.38;;;12.45;86.37
2188;BME280;1100;52.014;8.540;2023-05-23T05:36:22;100166.50;;;12.46;86.48
2188;BME280;1100;52.014;8.540;2023-05-23T05:38:48;100166.06;;;12.48;86.41
2188;BME280;1100;52.014;8.540;2023-05-23T05:41:13;100168.41;;;12.49;86.48
2188;BME280;1100;52.014;8.540;2023-05-23T05:43:38;100174.75;;;12.50;86.73
2188;BME280;1100;52.014;8.540;2023-05-23T05:46:04;100176.75;;;12.49;87.13
2188;BME280;1100;52.014;8.540;2023-05-23T05:48:29;100170.88;;;12.47;87.33
2188;BME280;1100;52.014;8.540;2023-05-23T05:50:55;100183.38;;;12.42;86.82
2188;BME280;1100;52.014;8.540;2023-05-23T05:53:20;100179.78;;;12.42;87.26
2188;BME280;1100;52.014;8.540;2023-05-23T05:55:45;100175.78;;;12.43;87.42
2188;BME280;1100;52.014;8.540;2023-05-23T05:58:11;100184.47;;;12.45;87.96
2188;BME280;1100;52.014;8.540;2023-05-23T06:00:36;100184.13;;;12.43;87.49
2188;BME280;1100;52.014;8.540;2023-05-23T06:03:07;100179.78;;;12.42;87.38
2188;BME280;1100;52.014;8.540;2023-05-23T06:05:32;100186.28;;;12.39;87.41
2188;BME280;1100;52.014;8.540;2023-05-23T06:07:58;100189.41;;;12.41;88.21
2188;BME280;1100;52.014;8.540;2023-05-23T06:10:23;100190.94;;;12.42;88.53
2188;BME280;1100;52.014;8.540;2023-05-23T06:12:49;100184.28;;;12.39;88.03
2188;BME280;1100;52.014;8.540;2023-05-23T06:15:14;100187.81;;;12.40;87.93
2188;BME280;1100;52.014;8.540;2023-05-23T06:17:40;100185.47;;;12.38;88.31
2188;BME280;1100;52.014;8.540;2023-05-23T06:20:06;100187.81;;;12.40;88.57
2188;BME280;1100;52.014;8.540;2023-05-23T06:22:32;100191.50;;;12.37;88.46
2188;BME280;1100;52.014;8.540;2023-05-23T06:24:57;100193.09;;;12.38;88.46
2188;BME280;1100;52.014;8.540;2023-05-23T06:27:23;100204.69;;;12.36;88.44
2188;BME280;1100;52.014;8.540;2023-05-23T06:29:48;100199.88;;;12.37;88.30
2188;BME280;1100;52.014;8.540;2023-05-23T06:32:13;100207.91;;;12.35;88.38
2188;BME280;1100;52.014;8.540;2023-05-23T06:34:39;100206.34;;;12.33;88.23
2188;BME280;1100;52.014;8.540;2023-05-23T06:37:04;100206.34;;;12.33;88.00
2188;BME280;1100;52.014;8.540;2023-05-23T06:39:29;100217.50;;;12.33;88.46
2188;BME280;1100;52.014;8.540;2023-05-23T06:41:55;100218.06;;;12.28;88.21
2188;BME280;1100;52.014;8.540;2023-05-23T06:44:20;100217.84;;;12.23;88.54
2188;BME280;1100;52.014;8.540;2023-05-23T06:46:45;100227.88;;;12.20;88.50
2188;BME280;1100;52.014;8.540;2023-05-23T06:49:12;100219.63;;;12.16;88.65
2188;BME280;1100;52.014;8.540;2023-05-23T06:51:37;100222.88;;;12.15;88.80
2188;BME280;1100;52.014;8.540;2023-05-23T06:54:02;100240.47;;;12.12;89.06
2188;BME280;1100;52.014;8.540;2023-05-23T06:56:28;100235.91;;;12.05;88.51
2188;BME280;1100;52.014;8.540;2023-05-23T06:58:54;100233.56;;;12.03;89.36
2188;BME280;1100;52.014;8.540;2023-05-23T07:01:19;100246.13;;;11.95;88.73
2188;BME280;1100;52.014;8.540;2023-05-23T07:03:44;100243.47;;;11.91;88.81
2188;BME280;1100;52.014;8.540;2023-05-23T07:06:11;100246.34;;;11.88;88.70
2188;BME280;1100;52.014;8.540;2023-05-23T07:08:37;100244.78;;;11.87;88.83
2188;BME280;1100;52.014;8.540;2023-05-23T07:11:02;100255.28;;;11.82;88.88
2188;BME280;1100;52.014;8.540;2023-05-23T07:13:28;100251.47;;;11.76;88.86
2188;BME280;1100;52.014;8.540;2023-05-23T07:15:54;100257.94;;;11.73;88.94
2188;BME280;1100;52.014;8.540;2023-05-23T07:18:20;100258.81;;;11.70;88.81
2188;BME280;1100;52.014;8.540;2023-05-23T07:20:45;100262.81;;;11.69;89.31
2188;BME280;1100;52.014;8.540;2023-05-23T07:23:10;100272.84;;;11.66;89.13
2188;BME280;1100;52.014;8.540;2023-05-23T07:25:36;100270.72;;;11.57;89.08
2188;BME280;1100;52.014;8.540;2023-05-23T07:28:01;100284.63;;;11.57;89.83
2188;BME280;1100;52.014;8.540;2023-05-23T07:30:26;100291.53;;;11.53;90.31
2188;BME280;1100;52.014;8.540;2023-05-23T07:32:52;100288.16;;;11.45;90.09
2188;BME280;1100;52.014;8.540;2023-05-23T07:35:17;100298.94;;;11.43;89.87
2188;BME280;1100;52.014;8.540;2023-05-23T07:37:48;100299.16;;;11.36;89.81
2188;BME280;1100;52.014;8.540;2023-05-23T07:40:13;100294.63;;;11.25;90.09
2188;BME280;1100;52.014;8.540;2023-05-23T07:42:38;100307.19;;;11.17;90.04
2188;BME280;1100;52.014;8.540;2023-05-23T07:45:04;100312.50;;;11.11;89.77
2188;BME280;1100;52.014;8.540;2023-05-23T07:47:30;100316.16;;;11.08;89.63
2188;BME280;1100;52.014;8.540;2023-05-23T07:49:55;100326.16;;;11.05;89.78
2188;BME280;1100;52.014;8.540;2023-05-23T07:52:20;100336.59;;;11.01;90.00
2188;BME280;1100;52.014;8.540;2023-05-23T07:54:46;100324.44;;;10.95;90.45
2188;BME280;1100;52.014;8.540;2023-05-23T07:57:11;100341.66;;;10.90;90.47
2188;BME280;1100;52.014;8.540;2023-05-23T07:59:37;100331.41;;;10.87;90.24
2188;BME280;1100;52.014;8.540;2023-05-23T08:02:02;100342.28;;;10.81;90.21
2188;BME280;1100;52.014;8.540;2023-05-23T08:04:28;100343.47;;;10.80;90.66
2188;BME280;1100;52.014;8.540;2023-05-23T08:06:54;100340.25;;;10.81;91.08
2188;BME280;1100;52.014;8.540;2023-05-23T08:09:20;100345.06;;;10.81;90.88
2188;BME280;1100;52.014;8.540;2023-05-23T08:11:45;100347.03;;;10.80;90.59
2188;BME280;1100;52.014;8.540;2023-05-23T08:14:11;100352.97;;;10.82;90.87
2188;BME280;1100;52.014;8.540;2023-05-23T08:16:36;100357.28;;;10.83;90.94
2188;BME280;1100;52.014;8.540;2023-05-23T08:19:02;100355.63;;;10.86;90.57
2188;BME280;1100;52.014;8.540;2023-05-23T08:21:27;100354.00;;;10.89;90.36
2188;BME280;1100;52.014;8.540;2023-05-23T08:23:53;100361.47;;;10.92;90.48
2188;BME280;1100;52.014;8.540;2023-05-23T08:26:18;100359.81;;;10.94;90.68
2188;BME280;1100;52.014;8.540;2023-05-23T08:28:43;100368.59;;;10.93;90.62
2188;BME280;1100;52.014;8.540;2023-05-23T08:31:09;100371.38;;;10.93;90.69
2188;BME280;1100;52.014;8.540;2023-05-23T08:33:34;100364.25;;;10.92;90.58
2188;BME280;1100;52.014;8.540;2023-05-23T08:35:59;100374.06;;;10.96;90.67
2188;BME280;1100;52.014;8.540;2023-05-23T08:38:25;100377.63;;;10.97;90.50
2188;BME280;1100;52.014;8.540;2023-05-23T08:40:51;100384.41;;;10.96;90.54
2188;BME280;1100;52.014;8.540;2023-05-23T08:43:17;100390.75;;;10.96;90.37
2188;BME280;1100;52.014;8.540;2023-05-23T08:45:43;100388.41;;;10.95;90.59
2188;BME280;1100;52.014;8.540;2023-05-23T08:48:12;100387.88;;;11.00;90.57
2188;BME280;1100;52.014;8.540;2023-05-23T08:50:38;100383.47;;;11.03;90.85
2188;BME280;1100;52.014;8.540;2023-05-23T08:53:05;100393.88;;;10.99;90.82
2188;BME280;1100;52.014;8.540;2023-05-23T08:55:32;100390.06;;;10.92;90.49
2188;BME280;1100;52.014;8.540;2023-05-23T08:57:58;100397.63;;;10.92;90.62
2188;BME280;1100;52.014;8.540;2023-05-23T09:00:25;100406.84;;;10.89;90.50
2188;BME280;1100;52.014;8.540;2023-05-23T09:02:52;100401.28;;;10.89;90.66
2188;BME280;1100;52.014;8.540;2023-05-23T09:05:21;100402.84;;;10.90;90.56
2188;BME280;1100;52.014;8.540;2023-05-23T09:07:47;100405.97;;;10.92;90.43
2188;BME280;1100;52.014;8.540;2023-05-23T09:10:14;100407.16;;;10.91;90.52
2188;BME280;1100;52.014;8.540;2023-05-23T09:12:41;100417.09;;;10.92;90.47
2188;BME280;1100;52.014;8.540;2023-05-23T09:15:08;100421.88;;;10.91;90.62
2188;BME280;1100;52.014;8.540;2023-05-23T09:17:34;100423.00;;;10.94;90.42
2188;BME280;1100;52.014;8.540;2023-05-23T09:20:00;100434.84;;;10.98;90.82
2188;BME280;1100;52.014;8.540;2023-05-23T09:22:27;100437.25;;;10.96;90.93
2188;BME280;1100;52.014;8.540;2023-05-23T09:24:56;100438.19;;;10.89;90.39
2188;BME280;1100;52.014;8.540;2023-05-23T09:27:21;100441.06;;;10.86;90.90
2188;BME280;1100;52.014;8.540;2023-05-23T09:29:48;100434.72;;;10.85;90.60
2188;BME280;1100;52.014;8.540;2023-05-23T09:32:19;100440.72;;;10.83;90.56
2188;BME280;1100;52.014;8.540;2023-05-23T09:34:58;100439.84;;;10.87;90.99
2188;BME280;1100;52.014;8.540;2023-05-23T09:37:31;100441.06;;;10.86;91.10
2188;BME280;1100;52.014;8.540;2023-05-23T09:39:59;100444.38;;;10.80;90.62
2188;BME280;1100;52.014;8.540;2023-05-23T09:42:24;100453.13;;;10.79;90.86
2188;BME280;1100;52.014;8.540;2023-05-23T09:44:50;100455.13;;;10.78;90.69
2188;BME280;1100;52.014;8.540;2023-05-23T09:47:16;100460.25;;;10.80;90.78
2188;BME280;1100;52.014;8.540;2023-05-23T09:49:45;100463.31;;;10.86;90.55
2188;BME280;1100;52.014;8.540;2023-05-23T09:52:11;100464.19;;;10.82;90.77
2188;BME280;1100;52.014;8.540;2023-05-23T09:54:37;100470.19;;;10.81;90.84
2188;BME280;1100;52.014;8.540;2023-05-23T09:57:07;100473.84;;;10.78;90.80
2188;BME280;1100;52.014;8.540;2023-05-23T09:59:33;100474.41;;;10.69;90.63
2188;BME280;1100;52.014;8.540;2023-05-23T10:02:01;100479.25;;;10.65;90.79
2188;BME280;1100;52.014;8.540;2023-05-23T10:04:30;100477.69;;;10.64;90.84
2188;BME280;1100;52.014;8.540;2023-05-23T10:07:01;100475.75;;;10.61;90.82
2188;BME280;1100;52.014;8.540;2023-05-23T10:09:32;100480.63;;;10.56;90.70
2188;BME280;1100;52.014;8.540;2023-05-23T10:15:04;100493.09;;;10.68;90.77
2188;BME280;1100;52.014;8.540;2023-05-23T10:17:45;100483.53;;;10.69;90.99
2188;BME280;1100;52.014;8.540;2023-05-23T10:20:16;100490.50;;;10.57;90.74
2188;BME280;1100;52.014;8.540;2023-05-23T10:22:44;100503.78;;;10.50;90.71
2188;BME280;1100;52.014;8.540;2023-05-23T10:25:10;100495.53;;;10.46;90.72
2188;BME280;1100;52.014;8.540;2023-05-23T10:27:36;100510.94;;;10.51;90.66
2188;BME280;1100;52.014;8.540;2023-05-23T10:30:03;100511.69;;;10.51;90.65
2188;BME280;1100;52.014;8.540;2023-05-23T10:32:29;100507.78;;;10.49;90.85
2188;BME280;1100;52.014;8.540;2023-05-23T10:37:58;100513.38;;;10.45;90.29
2188;BME280;1100;52.014;8.540;2023-05-23T10:43:02;100523.56;;;10.31;90.49
2188;BME280;1100;52.014;8.540;2023-05-23T10:45:38;100519.13;;;10.14;90.52
2188;BME280;1100;52.014;8.540;2023-05-23T10:48:19;100520.91;;;10.04;90.55
2188;BME280;1100;52.014;8.540;2023-05-23T10:50:44;100526.47;;;10.04;90.74
2188;BME280;1100;52.014;8.540;2023-05-23T10:53:14;100524.84;;;10.06;90.69
2188;BME280;1100;52.014;8.540;2023-05-23T10:55:40;100524.63;;;10.17;90.71
2188;BME280;1100;52.014;8.540;2023-05-23T11:00:35;100535.59;;;10.45;90.52
2188;BME280;1100;52.014;8.540;2023-05-23T11:03:04;100536.16;;;10.60;90.46
2188;BME280;1100;52.014;8.540;2023-05-23T11:05:29;100539.06;;;10.73;90.36
2188;BME280;1100;52.014;8.540;2023-05-23T11:08:11;100537.63;;;10.85;90.14
2188;BME280;1100;52.014;8.540;2023-05-23T11:10:58;100546.97;;;10.95;89.75
2188;BME280;1100;52.014;8.540;2023-05-23T11:13:24;100544.50;;;10.97;89.26
2188;BME280;1100;52.014;8.540;2023-05-23T11:15:50;100547.16;;;11.04;88.64
2188;BME280;1100;52.014;8.540;2023-05-23T11:18:23;100555.59;;;11.17;89.07
2188;BME280;1100;52.014;8.540;2023-05-23T11:20:52;100548.03;;;11.34;89.01
2188;BME280;1100;52.014;8.540;2023-05-23T11:23:17;100551.47;;;11.59;88.95
2188;BME280;1100;52.014;8.540;2023-05-23T11:25:51;100543.00;;;12.13;87.25
2188;BME280;1100;52.014;8.540;2023-05-23T11:28:18;100538.78;;;12.21;87.44
2188;BME280;1100;52.014;8.540;2023-05-23T11:30:47;100539.94;;;12.37;87.61
2188;BME280;1100;52.014;8.540;2023-05-23T11:33:14;100546.31;;;12.37;87.16
2188;BME280;1100;52.014;8.540;2023-05-23T11:35:41;100546.84;;;12.32;87.06
2188;BME280;1100;52.014;8.540;2023-05-23T11:38:07;100542.88;;;12.46;87.01
2188;BME280;1100;52.014;8.540;2023-05-23T11:40:35;100552.59;;;12.54;87.26
2188;BME280;1100;52.014;8.540;2023-05-23T11:43:03;100550.50;;;12.58;87.00
2188;BME280;1100;52.014;8.540;2023-05-23T11:45:29;100557.59;;;12.46;86.14
2188;BME280;1100;52.014;8.540;2023-05-23T11:47:56;100560.19;;;12.24;85.75
2188;BME280;1100;52.014;8.540;2023-05-23T11:50:21;100559.19;;;12.01;85.47
2188;BME280;1100;52.014;8.540;2023-05-23T11:52:48;100566.41;;;11.82;85.17
2188;BME280;1100;52.014;8.540;2023-05-23T11:55:20;100572.06;;;11.62;84.57
2188;BME280;1100;52.014;8.540;2023-05-23T11:57:46;100576.59;;;11.39;84.57
2188;BME280;1100;52.014;8.540;2023-05-23T12:00:12;100572.84;;;11.29;84.82
2188;BME280;1100;52.014;8.540;2023-05-23T12:02:42;100572.31;;;11.34;85.01
2188;BME280;1100;52.014;8.540;2023-05-23T12:05:12;100567.03;;;11.40;84.82
2188;BME280;1100;52.014;8.540;2023-05-23T12:07:45;100580.25;;;11.52;85.29
2188;BME280;1100;52.014;8.540;2023-05-23T12:10:11;100584.94;;;11.72;84.99
2188;BME280;1100;52.014;8.540;2023-05-23T12:12:40;100593.13;;;11.96;85.14
2188;BME280;1100;52.014;8.540;2023-05-23T12:15:07;100586.69;;;12.16;84.51
2188;BME280;1100;52.014;8.540;2023-05-23T12:17:33;100586.31;;;12.30;83.40
2188;BME280;1100;52.014;8.540;2023-05-23T12:19:58;100590.28;;;12.46;83.73
2188;BME280;1100;52.014;8.540;2023-05-23T12:22:24;100596.03;;;12.68;83.95
2188;BME280;1100;52.014;8.540;2023-05-23T12:24:53;100596.97;;;12.78;81.89
2188;BME280;1100;52.014;8.540;2023-05-23T12:27:29;100590.25;;;12.76;82.18
2188;BME280;1100;52.014;8.540;2023-05-23T12:30:27;100603.00;;;12.90;81.74
2188;BME280;1100;52.014;8.540;2023-05-23T12:32:53;100596.13;;;13.07;82.26
2188;BME280;1100;52.014;8.540;2023-05-23T12:35:18;100594.69;;;13.16;81.44
2188;BME280;1100;52.014;8.540;2023-05-23T12:37:44;100592.69;;;13.29;81.48
2188;BME280;1100;52.014;8.540;2023-05-23T12:40:14;100592.25;;;13.44;81.34
2188;BME280;1100;52.014;8.540;2023-05-23T12:42:50;100594.69;;;13.42;79.61
2188;BME280;1100;52.014;8.540;2023-05-23T12:45:17;100591.31;;;13.21;79.19
2188;BME280;1100;52.014;8.540;2023-05-23T12:47:42;100607.38;;;13.04;79.03
2188;BME280;1100;52.014;8.540;2023-05-23T12:50:08;100596.44;;;12.96;79.23
2188;BME280;1100;52.014;8.540;2023-05-23T12:52:33;100602.50;;;13.08;79.11
2188;BME280;1100;52.014;8.540;2023-05-23T12:55:01;100599.69;;;13.21;79.34
2188;BME280;1100;52.014;8.540;2023-05-23T12:57:27;100601.75;;;13.33;79.66
2188;BME280;1100;52.014;8.540;2023-05-23T12:59:52;100603.75;;;13.46;78.68
2188;BME280;1100;52.014;8.540;2023-05-23T13:02:17;100587.69;;;13.50;77.89
2188;BME280;1100;52.014;8.540;2023-05-23T13:04:42;100599.84;;;13.69;77.16
2188;BME280;1100;52.014;8.540;2023-05-23T13:07:08;100601.59;;;14.02;75.52
2188;BME280;1100;52.014;8.540;2023-05-23T13:09:33;100598.78;;;14.02;75.05
2188;BME280;1100;52.014;8.540;2023-05-23T13:11:58;100593.19;;;14.02;73.92
2188;BME280;1100;52.014;8.540;2023-05-23T13:14:24;100613.22;;;14.01;74.42
2188;BME280;1100;52.014;8.540;2023-05-23T13:16:53;100598.47;;;13.87;71.16
2188;BME280;1100;52.014;8.540;2023-05-23T13:19:18;100605.19;;;13.90;73.70
2188;BME280;1100;52.014;8.540;2023-05-23T13:21:44;100598.63;;;14.19;74.09
2188;BME280;1100;52.014;8.540;2023-05-23T13:24:09;100600.25;;;14.29;73.67
2188;BME280;1100;52.014;8.540;2023-05-23T13:26:34;100613.03;;;14.30;73.62